createdAt,value
2018-11-05T00:01:55.732Z,12.30
2018-11-05T00:06:55.725Z,12.30
2018-11-05T00:09:27.067Z,12.30
2018-11-05T00:11:57.410Z,12.20
2018-11-05T00:14:24.976Z,12.20
2018-11-05T00:16:52.509Z,12.40
2018-11-05T00:19:20.301Z,12.60
2018-11-05T00:21:48.021Z,12.20
2018-11-05T00:26:43.247Z,12.60
2018-11-05T00:39:02.619Z,12.00
2018-11-05T00:41:30.748Z,12.30
2018-11-05T00:43:58.312Z,12.00
2018-11-05T00:53:50.155Z,12.50
2018-11-05T00:56:17.656Z,12.10
2018-11-05T00:58:46.452Z,12.40
2018-11-05T01:01:13.969Z,12.30
2018-11-05T01:03:41.516Z,12.20
2018-11-05T01:06:12.613Z,12.40
2018-11-05T01:11:07.730Z,12.30
2018-11-05T01:13:35.413Z,12.30
2018-11-05T01:18:30.629Z,12.10
2018-11-05T01:23:25.551Z,12.30
2018-11-05T01:25:53.099Z,12.30
2018-11-05T01:28:20.667Z,12.60
2018-11-05T01:30:48.239Z,12.60
2018-11-05T01:38:12.574Z,12.20
2018-11-05T01:40:40.633Z,12.10
2018-11-05T01:43:08.180Z,12.40
2018-11-05T01:48:03.191Z,12.10
2018-11-05T01:50:32.023Z,12.20
2018-11-05T01:52:59.519Z,12.20
2018-11-05T01:55:27.091Z,12.10
2018-11-05T01:57:54.554Z,12.40
2018-11-05T02:00:22.023Z,12.40
2018-11-05T02:02:50.297Z,12.40
2018-11-05T02:05:17.949Z,12.40
2018-11-05T02:07:46.140Z,12.40
2018-11-05T02:10:14.893Z,12.60
2018-11-05T02:12:42.470Z,12.40
2018-11-05T02:15:10.480Z,12.70
2018-11-05T02:17:38.805Z,12.40
2018-11-05T02:20:07.001Z,12.30
2018-11-05T02:25:02.496Z,12.40
2018-11-05T02:27:29.985Z,12.40
2018-11-05T02:29:57.440Z,12.30
2018-11-05T02:32:25.109Z,12.40
2018-11-05T02:34:52.565Z,12.60
2018-11-05T02:42:15.070Z,12.50
2018-11-05T02:44:43.887Z,12.40
2018-11-05T02:47:11.536Z,12.30
2018-11-05T02:52:06.717Z,12.30
2018-11-05T02:54:34.990Z,12.30
2018-11-05T02:59:31.157Z,12.40
2018-11-05T03:04:26.072Z,12.40
2018-11-05T03:06:53.764Z,12.40
2018-11-05T03:09:21.281Z,12.50
2018-11-05T03:11:48.801Z,12.40
2018-11-05T03:14:16.284Z,12.70
2018-11-05T03:19:11.776Z,12.50
2018-11-05T03:24:06.680Z,12.50
2018-11-05T03:29:01.608Z,12.30
2018-11-05T03:33:56.504Z,12.70
2018-11-05T03:38:51.891Z,12.50
2018-11-05T03:41:19.402Z,12.30
2018-11-05T03:43:47.374Z,12.40
2018-11-05T03:46:14.900Z,12.20
2018-11-05T03:51:10.062Z,12.40
2018-11-05T03:53:38.261Z,12.40
2018-11-05T03:58:33.649Z,12.40
2018-11-05T04:03:28.681Z,12.50
2018-11-05T04:05:56.291Z,13.00
2018-11-05T04:08:23.781Z,12.50
2018-11-05T04:10:51.252Z,12.50
2018-11-05T04:13:18.825Z,12.80
2018-11-05T04:18:15.258Z,12.30
2018-11-05T04:20:42.876Z,12.60
2018-11-05T04:23:10.395Z,12.80
2018-11-05T04:25:38.549Z,12.40
2018-11-05T04:28:06.343Z,12.50
2018-11-05T04:30:33.820Z,12.00
2018-11-05T04:33:01.304Z,12.50
2018-11-05T04:37:56.653Z,13.10
2018-11-05T04:42:51.742Z,12.60
2018-11-05T04:45:19.320Z,12.50
2018-11-05T04:47:46.858Z,12.20
2018-11-05T04:50:14.413Z,12.60
2018-11-05T04:55:10.097Z,12.50
2018-11-05T04:57:37.726Z,12.10
2018-11-05T05:00:12.709Z,12.50
2018-11-05T05:05:09.028Z,12.60
2018-11-05T05:07:37.136Z,12.50
2018-11-05T05:10:05.456Z,12.80
2018-11-05T05:12:32.937Z,12.60
2018-11-05T05:19:55.257Z,12.40
2018-11-05T05:22:22.808Z,12.50
2018-11-05T05:24:50.321Z,12.30
2018-11-05T05:27:17.760Z,12.10
2018-11-05T05:29:45.278Z,12.50
2018-11-05T05:32:12.956Z,12.30
2018-11-05T05:37:08.017Z,12.80
2018-11-05T05:42:04.368Z,12.50
2018-11-05T05:44:31.791Z,12.50
2018-11-05T05:46:59.365Z,12.50
2018-11-05T05:49:27.682Z,12.40
2018-11-05T05:54:22.820Z,12.50
2018-11-05T05:56:50.372Z,12.50
2018-11-05T05:59:17.935Z,12.50
2018-11-05T06:01:45.444Z,12.90
2018-11-05T06:04:12.992Z,12.30
2018-11-05T06:06:40.664Z,12.40
2018-11-05T06:09:09.426Z,12.50
2018-11-05T06:11:37.132Z,12.40
2018-11-05T06:14:05.992Z,12.40
2018-11-05T06:21:29.099Z,12.50
2018-11-05T06:23:56.615Z,12.50
2018-11-05T06:26:24.404Z,12.50
2018-11-05T06:31:20.901Z,12.60
2018-11-05T06:36:15.979Z,12.10
2018-11-05T06:38:44.556Z,12.50
2018-11-05T06:41:12.119Z,12.60
2018-11-05T06:46:07.168Z,12.50
2018-11-05T06:48:34.795Z,12.50
2018-11-05T06:51:02.860Z,12.40
2018-11-05T06:55:58.609Z,12.50
2018-11-05T07:03:21.357Z,12.70
2018-11-05T07:08:17.133Z,12.50
2018-11-05T07:10:44.883Z,12.40
2018-11-05T07:13:12.502Z,12.50
2018-11-05T07:18:08.156Z,12.60
2018-11-05T07:20:35.641Z,12.30
2018-11-05T07:30:25.969Z,12.60
2018-11-05T07:37:50.124Z,12.90
2018-11-05T07:42:46.882Z,12.20
2018-11-05T07:45:17.621Z,12.60
2018-11-05T07:52:41.977Z,12.40
2018-11-05T07:55:11.730Z,12.60
2018-11-05T07:57:40.774Z,12.80
2018-11-05T08:00:16.033Z,12.30
2018-11-05T08:02:44.311Z,12.50
2018-11-05T08:05:12.272Z,12.40
2018-11-05T08:10:08.357Z,12.90
2018-11-05T08:12:36.811Z,12.90
2018-11-05T08:15:05.372Z,13.30
2018-11-05T08:22:28.370Z,13.20
2018-11-05T08:24:56.225Z,13.00
2018-11-05T08:27:23.710Z,13.20
2018-11-05T08:29:51.165Z,12.90
2018-11-05T08:32:18.668Z,13.10
2018-11-05T08:34:46.163Z,12.60
2018-11-05T08:44:36.376Z,13.00
2018-11-05T08:54:26.224Z,12.60
2018-11-05T08:56:53.783Z,12.90
2018-11-05T08:59:21.233Z,12.90
2018-11-05T09:04:16.111Z,12.90
2018-11-05T09:06:43.608Z,13.00
2018-11-05T09:09:11.111Z,12.90
2018-11-05T09:11:39.041Z,12.80
2018-11-05T09:14:06.174Z,12.90
2018-11-05T09:16:33.677Z,12.90
2018-11-05T09:19:01.172Z,13.20
2018-11-05T09:25:20.625Z,13.10
2018-11-05T09:27:48.205Z,13.10
2018-11-05T09:30:23.460Z,13.10
2018-11-05T09:32:51.117Z,13.10
2018-11-05T09:35:18.599Z,13.00
2018-11-05T09:37:46.123Z,13.10
2018-11-05T09:40:15.801Z,13.00
2018-11-05T09:42:44.125Z,12.90
2018-11-05T09:45:15.096Z,13.30
2018-11-05T09:47:43.383Z,13.10
2018-11-05T09:50:11.378Z,13.10
2018-11-05T09:52:38.998Z,12.60
2018-11-05T09:55:07.216Z,13.10
2018-11-05T09:57:34.724Z,13.10
2018-11-05T10:00:02.549Z,13.00
2018-11-05T10:02:35.729Z,13.10
2018-11-05T10:09:58.316Z,13.20
2018-11-05T10:12:25.841Z,13.20
2018-11-05T10:17:20.892Z,13.20
2018-11-05T10:19:48.385Z,13.20
2018-11-05T10:22:15.913Z,13.40
2018-11-05T10:24:43.609Z,12.80
2018-11-05T10:27:11.078Z,13.40
2018-11-05T10:29:38.557Z,13.30
2018-11-05T10:32:06.081Z,13.30
2018-11-05T10:34:33.566Z,13.20
2018-11-05T10:39:28.489Z,13.20
2018-11-05T10:41:55.987Z,13.00
2018-11-05T10:44:23.433Z,13.70
2018-11-05T10:46:50.943Z,13.30
2018-11-05T10:49:18.388Z,13.30
2018-11-05T10:51:45.961Z,13.30
2018-11-05T10:56:40.884Z,14.00
2018-11-05T11:01:41.523Z,13.60
2018-11-05T11:04:14.693Z,13.70
2018-11-05T11:06:42.159Z,13.70
2018-11-05T11:09:09.667Z,13.70
2018-11-05T11:11:37.137Z,13.70
2018-11-05T11:14:04.644Z,13.80
2018-11-05T11:16:32.136Z,13.50
2018-11-05T11:18:59.640Z,14.10
2018-11-05T11:21:27.091Z,13.90
2018-11-05T11:23:54.599Z,14.00
2018-11-05T11:26:22.091Z,14.10
2018-11-05T11:28:49.710Z,14.20
2018-11-05T11:33:44.600Z,13.90
2018-11-05T11:36:12.065Z,14.40
2018-11-05T11:41:06.926Z,14.40
2018-11-05T11:43:34.456Z,13.90
2018-11-05T11:48:29.352Z,14.20
2018-11-05T11:50:56.914Z,14.00
2018-11-05T11:53:24.371Z,14.10
2018-11-05T11:55:51.813Z,14.30
2018-11-05T11:58:19.316Z,14.30
2018-11-05T12:03:14.284Z,14.00
2018-11-05T12:08:09.333Z,14.00
2018-11-05T12:10:37.146Z,14.20
2018-11-05T12:13:04.897Z,14.20
2018-11-05T12:15:32.414Z,14.80
2018-11-05T12:17:59.872Z,14.60
2018-11-05T12:20:27.555Z,14.80
2018-11-05T12:22:55.084Z,15.00
2018-11-05T12:25:22.646Z,15.50
2018-11-05T12:27:50.144Z,14.60
2018-11-05T12:30:19.902Z,15.10
2018-11-05T12:32:48.374Z,15.00
2018-11-05T12:35:15.848Z,14.90
2018-11-05T12:37:44.642Z,15.10
2018-11-05T12:40:13.686Z,14.90
2018-11-05T12:42:41.905Z,14.90
2018-11-05T12:47:37.530Z,15.30
2018-11-05T12:50:07.975Z,15.10
2018-11-05T12:57:30.373Z,15.00
2018-11-05T12:59:57.880Z,14.60
2018-11-05T13:02:26.153Z,14.80
2018-11-05T13:04:54.451Z,14.70
2018-11-05T13:12:17.083Z,14.80
2018-11-05T13:14:44.634Z,14.50
2018-11-05T13:19:39.676Z,14.70
2018-11-05T13:22:07.357Z,15.40
2018-11-05T13:24:34.849Z,15.50
2018-11-05T13:27:02.441Z,15.90
2018-11-05T13:31:58.418Z,16.50
2018-11-05T13:34:25.920Z,16.60
2018-11-05T13:36:53.653Z,16.60
2018-11-05T13:39:20.956Z,16.60
2018-11-05T13:44:15.904Z,16.40
2018-11-05T13:46:43.889Z,16.60
2018-11-05T13:49:11.508Z,16.50
2018-11-05T13:54:06.233Z,16.70
2018-11-05T13:56:33.864Z,16.10
2018-11-05T13:59:01.351Z,15.80
2018-11-05T14:01:28.932Z,16.30
2018-11-05T14:03:56.491Z,15.70
2018-11-05T14:06:24.017Z,16.10
2018-11-05T14:08:51.625Z,16.40
2018-11-05T14:16:14.021Z,17.80
2018-11-05T14:21:09.045Z,17.60
2018-11-05T14:23:36.534Z,17.40
2018-11-05T14:26:04.469Z,17.20
2018-11-05T14:28:32.221Z,16.60
2018-11-05T14:30:59.446Z,16.80
2018-11-05T14:33:26.928Z,16.40
2018-11-05T14:38:21.986Z,16.00
2018-11-05T14:40:49.470Z,15.70
2018-11-05T14:43:17.289Z,15.60
2018-11-05T14:45:44.599Z,15.70
2018-11-05T14:48:12.143Z,15.60
2018-11-05T14:53:07.104Z,16.00
2018-11-05T14:55:34.702Z,16.40
2018-11-05T14:58:02.312Z,16.10
2018-11-05T15:00:29.883Z,15.80
2018-11-05T15:05:25.367Z,15.60
2018-11-05T15:15:17.304Z,14.90
2018-11-05T15:17:45.209Z,14.70
2018-11-05T15:22:41.524Z,14.60
2018-11-05T15:35:01.866Z,14.30
2018-11-05T15:37:29.321Z,14.10
2018-11-05T15:39:56.897Z,14.20
2018-11-05T15:42:25.250Z,14.30
2018-11-05T15:47:20.328Z,14.20
2018-11-05T15:52:16.042Z,14.70
2018-11-05T15:54:43.430Z,14.40
2018-11-05T15:57:11.084Z,14.00
2018-11-05T15:59:38.645Z,14.50
2018-11-05T16:04:39.944Z,14.10
2018-11-05T16:07:07.989Z,14.00
2018-11-05T16:09:36.072Z,13.90
2018-11-05T16:14:31.077Z,13.80
2018-11-05T16:16:58.646Z,14.10
2018-11-05T16:19:26.151Z,13.80
2018-11-05T16:34:11.265Z,13.70
2018-11-05T16:36:38.817Z,14.00
2018-11-05T16:39:09.020Z,13.40
2018-11-05T16:44:04.712Z,13.70
2018-11-05T16:46:32.243Z,13.60
2018-11-05T16:48:59.831Z,13.50
2018-11-05T16:51:27.699Z,13.60
2018-11-05T16:56:22.827Z,13.40
2018-11-05T17:03:45.678Z,13.50
2018-11-05T17:13:36.898Z,13.70
2018-11-05T17:16:05.149Z,12.60
2018-11-05T17:21:00.215Z,13.50
2018-11-05T17:25:55.439Z,13.30
2018-11-05T17:28:22.990Z,13.10
2018-11-05T17:30:50.591Z,13.30
2018-11-05T17:33:18.121Z,13.70
2018-11-05T17:38:14.286Z,13.40
2018-11-05T17:43:09.513Z,13.50
2018-11-05T17:45:37.022Z,13.30
2018-11-05T17:48:04.637Z,13.20
2018-11-05T17:50:32.213Z,12.70
2018-11-05T17:52:59.770Z,13.20
2018-11-05T18:00:22.711Z,13.00
2018-11-05T18:05:18.711Z,13.20
2018-11-05T18:10:14.164Z,13.30
2018-11-05T18:25:01.430Z,13.00
2018-11-05T18:27:29.084Z,12.90
2018-11-05T18:32:24.160Z,12.30
2018-11-05T18:39:47.694Z,12.80
2018-11-05T18:42:15.247Z,13.20
2018-11-05T18:54:33.813Z,12.70
2018-11-05T18:57:01.497Z,12.30
2018-11-05T18:59:29.069Z,12.40
2018-11-05T19:01:56.614Z,12.90
2018-11-05T19:04:24.100Z,12.70
2018-11-05T19:06:51.673Z,12.20
2018-11-05T19:11:46.666Z,12.40
2018-11-05T19:21:49.604Z,12.20
2018-11-05T19:26:44.827Z,12.20
2018-11-05T19:29:12.449Z,12.20
2018-11-05T19:31:40.118Z,12.40
2018-11-05T19:36:35.655Z,12.20
2018-11-05T19:41:32.084Z,12.10
2018-11-05T19:43:59.548Z,12.10
2018-11-05T19:46:27.103Z,12.20
2018-11-05T19:53:49.647Z,12.20
2018-11-05T19:58:44.655Z,12.30
2018-11-05T20:01:12.323Z,12.30
2018-11-05T20:03:39.884Z,12.20
2018-11-05T20:08:34.947Z,11.80
2018-11-05T20:11:02.497Z,11.80
2018-11-05T20:17:22.958Z,12.00
2018-11-05T20:22:18.723Z,12.10
2018-11-05T20:24:46.322Z,12.10
2018-11-05T20:27:14.223Z,11.80
2018-11-05T20:32:09.960Z,12.00
2018-11-05T20:34:37.751Z,11.90
2018-11-05T20:39:32.847Z,12.00
2018-11-05T20:42:00.553Z,12.10
2018-11-05T20:44:28.864Z,12.10
2018-11-05T20:46:56.493Z,12.10
2018-11-05T20:49:24.215Z,12.10
2018-11-05T20:54:19.461Z,12.10
2018-11-05T20:56:47.127Z,12.10
2018-11-05T20:59:14.859Z,12.10
2018-11-05T21:01:42.474Z,11.90
2018-11-05T21:06:38.319Z,11.90
2018-11-05T21:09:08.721Z,12.00
2018-11-05T21:14:03.992Z,11.90
2018-11-05T21:16:32.441Z,11.70
2018-11-05T21:19:00.199Z,11.70
2018-11-05T21:21:28.902Z,11.80
2018-11-05T21:23:57.077Z,11.60
2018-11-05T21:28:52.502Z,11.70
2018-11-05T21:31:20.321Z,11.80
2018-11-05T21:36:16.332Z,11.80
2018-11-05T21:41:11.482Z,11.60
2018-11-05T21:46:06.638Z,11.70
2018-11-05T21:48:34.334Z,11.70
2018-11-05T21:51:02.024Z,11.60
2018-11-05T21:53:29.665Z,11.50
2018-11-05T21:55:57.321Z,11.60
2018-11-05T21:58:24.984Z,11.50
2018-11-05T22:00:54.749Z,11.50
2018-11-05T22:03:25.577Z,11.40
2018-11-05T22:05:53.533Z,11.30
2018-11-05T22:10:49.614Z,11.40
2018-11-05T22:13:17.404Z,11.50
2018-11-05T22:15:46.596Z,11.50
2018-11-05T22:20:42.766Z,11.60
2018-11-05T22:23:10.377Z,11.70
2018-11-05T22:25:38.029Z,11.60
2018-11-05T22:28:05.923Z,11.60
2018-11-05T22:30:33.483Z,11.60
2018-11-05T22:33:01.103Z,12.00
2018-11-05T22:35:29.310Z,11.30
2018-11-05T22:37:57.037Z,11.30
2018-11-05T22:40:24.667Z,11.20
2018-11-05T22:42:52.284Z,11.10
2018-11-05T22:50:15.885Z,11.30
2018-11-05T22:52:43.499Z,11.20
2018-11-05T22:55:11.405Z,11.10
2018-11-05T23:01:14.341Z,11.10
2018-11-05T23:03:42.047Z,11.20
2018-11-05T23:06:09.726Z,11.10
2018-11-05T23:13:32.518Z,11.20
2018-11-05T23:16:00.170Z,11.70
2018-11-05T23:18:29.362Z,11.20
2018-11-05T23:20:56.882Z,11.10
2018-11-05T23:23:24.466Z,10.90
2018-11-05T23:25:51.973Z,11.30
2018-11-05T23:28:19.677Z,11.00
2018-11-05T23:30:47.992Z,11.00
2018-11-05T23:33:16.642Z,10.60
2018-11-05T23:35:44.143Z,10.90
2018-11-05T23:52:56.627Z,10.60
2018-11-05T23:57:51.785Z,10.90
